sensor_id;sensor_type;location;lat;lon;timestamp;pressure;altitude;pressure_sealevel;temperature;humidity
49342;BME280;35210;41.606;-87.602;2023-05-02T00:00:51;97840.88;;;10.89;92.29
49342;BME280;35210;41.606;-87.602;2023-05-02T00:03:20;97835.59;;;10.89;91.70
49342;BME280;35210;41.606;-87.602;2023-05-02T00:05:48;97842.06;;;10.95;90.80
49342;BME280;35210;41.606;-87.602;2023-05-02T00:08:16;97834.31;;;10.93;90.12
49342;BME280;35210;41.606;-87.602;2023-05-02T00:10:44;97840.41;;;10.94;89.66
49342;BME280;35210;41.606;-87.602;2023-05-02T00:13:14;97839.78;;;11.00;90.13
49342;BME280;35210;41.606;-87.602;2023-05-02T00:15:42;97841.28;;;11.02;89.61
49342;BME280;35210;41.606;-87.602;2023-05-02T00:18:10;97837.97;;;11.00;89.55
49342;BME280;35210;41.606;-87.602;2023-05-02T00:20:39;97833.66;;;10.99;88.87
49342;BME280;35210;41.606;-87.602;2023-05-02T00:23:08;97852.50;;;11.04;89.37
49342;BME280;35210;41.606;-87.602;2023-05-02T00:25:44;97847.22;;;11.04;89.02
49342;BME280;35210;41.606;-87.602;2023-05-02T00:28:14;97849.69;;;11.06;88.37
49342;BME280;35210;41.606;-87.602;2023-05-02T00:30:43;97859.78;;;11.10;87.71
49342;BME280;35210;41.606;-87.602;2023-05-02T00:33:12;97859.78;;;11.10;87.77
49342;BME280;35210;41.606;-87.602;2023-05-02T00:35:41;97863.25;;;11.11;87.67
49342;BME280;35210;41.606;-87.602;2023-05-02T00:38:09;97863.09;;;11.12;87.49
49342;BME280;35210;41.606;-87.602;2023-05-02T00:40:44;97871.03;;;11.12;87.99
49342;BME280;35210;41.606;-87.602;2023-05-02T00:43:15;97863.41;;;11.17;87.96
49342;BME280;35210;41.606;-87.602;2023-05-02T00:45:44;97869.69;;;11.16;88.21
49342;BME280;35210;41.606;-87.602;2023-05-02T00:48:12;97866.56;;;11.21;88.03
49342;BME280;35210;41.606;-87.602;2023-05-02T00:50:43;97868.22;;;11.22;87.50
49342;BME280;35210;41.606;-87.602;2023-05-02T00:53:11;97868.06;;;11.24;87.88
49342;BME280;35210;41.606;-87.602;2023-05-02T00:55:40;97876.00;;;11.24;86.99
49342;BME280;35210;41.606;-87.602;2023-05-02T00:58:15;97883.59;;;11.27;86.94
49342;BME280;35210;41.606;-87.602;2023-05-02T01:00:59;97878.47;;;11.25;87.04
49342;BME280;35210;41.606;-87.602;2023-05-02T01:03:46;97879.31;;;11.26;86.51
49342;BME280;35210;41.606;-87.602;2023-05-02T01:06:34;97885.25;;;11.28;86.54
49342;BME280;35210;41.606;-87.602;2023-05-02T01:09:18;97889.38;;;11.30;86.18
49342;BME280;35210;41.606;-87.602;2023-05-02T01:12:00;97889.53;;;11.29;86.45
49342;BME280;35210;41.606;-87.602;2023-05-02T01:14:35;97893.53;;;11.33;85.64
49342;BME280;35210;41.606;-87.602;2023-05-02T01:17:11;97895.19;;;11.34;84.54
49342;BME280;35210;41.606;-87.602;2023-05-02T01:19:46;97901.13;;;11.36;83.00
49342;BME280;35210;41.606;-87.602;2023-05-02T01:22:19;97892.53;;;11.34;80.63
49342;BME280;35210;41.606;-87.602;2023-05-02T01:24:57;97898.50;;;11.36;79.89
49342;BME280;35210;41.606;-87.602;2023-05-02T01:27:36;97898.50;;;11.36;78.78
49342;BME280;35210;41.606;-87.602;2023-05-02T01:30:11;97907.25;;;11.36;78.23
49342;BME280;35210;41.606;-87.602;2023-05-02T01:32:46;97908.22;;;11.35;79.00
49342;BME280;35210;41.606;-87.602;2023-05-02T01:35:16;97910.88;;;11.35;75.40
49342;BME280;35210;41.606;-87.602;2023-05-02T01:37:46;97916.66;;;11.39;75.36
49342;BME280;35210;41.606;-87.602;2023-05-02T01:40:17;97912.06;;;11.41;75.10
49342;BME280;35210;41.606;-87.602;2023-05-02T01:42:49;97922.63;;;11.41;74.15
49342;BME280;35210;41.606;-87.602;2023-05-02T01:45:22;97920.81;;;11.41;74.71
49342;BME280;35210;41.606;-87.602;2023-05-02T01:47:51;97914.84;;;11.39;73.62
49342;BME280;35210;41.606;-87.602;2023-05-02T01:50:23;97918.00;;;11.43;70.21
49342;BME280;35210;41.606;-87.602;2023-05-02T01:52:55;97916.69;;;11.47;70.31
49342;BME280;35210;41.606;-87.602;2023-05-02T01:55:27;97916.16;;;11.35;68.83
49342;BME280;35210;41.606;-87.602;2023-05-02T01:57:55;97927.25;;;11.39;67.96
49342;BME280;35210;41.606;-87.602;2023-05-02T02:00:25;97926.56;;;11.37;68.92
49342;BME280;35210;41.606;-87.602;2023-05-02T02:02:56;97925.63;;;11.46;68.29
49342;BME280;35210;41.606;-87.602;2023-05-02T02:05:26;97925.94;;;11.43;68.07
49342;BME280;35210;41.606;-87.602;2023-05-02T02:07:56;97936.31;;;11.36;66.84
49342;BME280;35210;41.606;-87.602;2023-05-02T02:10:26;97938.81;;;11.38;67.11
49342;BME280;35210;41.606;-87.602;2023-05-02T02:13:03;97936.81;;;11.40;65.91
49342;BME280;35210;41.606;-87.602;2023-05-02T02:15:37;97940.47;;;11.39;65.51
49342;BME280;35210;41.606;-87.602;2023-05-02T02:18:11;97937.16;;;11.37;65.18
49342;BME280;35210;41.606;-87.602;2023-05-02T02:20:43;97934.16;;;11.32;66.41
49342;BME280;35210;41.606;-87.602;2023-05-02T02:23:15;97933.00;;;11.34;66.20
49342;BME280;35210;41.606;-87.602;2023-05-02T02:25:48;97939.44;;;11.32;65.20
49342;BME280;35210;41.606;-87.602;2023-05-02T02:28:18;97933.00;;;11.34;64.16
49342;BME280;35210;41.606;-87.602;2023-05-02T02:30:49;97938.81;;;11.38;65.08
49342;BME280;35210;41.606;-87.602;2023-05-02T02:33:19;97937.81;;;11.39;66.00
49342;BME280;35210;41.606;-87.602;2023-05-02T02:35:52;97944.09;;;11.38;64.54
49342;BME280;35210;41.606;-87.602;2023-05-02T02:38:31;97942.13;;;11.40;65.42
49342;BME280;35210;41.606;-87.602;2023-05-02T02:41:05;97934.19;;;11.40;64.92
49342;BME280;35210;41.606;-87.602;2023-05-02T02:43:45;97939.97;;;11.43;64.91
49342;BME280;35210;41.606;-87.602;2023-05-02T02:46:28;97944.91;;;11.38;63.52
49342;BME280;35210;41.606;-87.602;2023-05-02T02:49:25;97940.28;;;11.40;64.10
49342;BME280;35210;41.606;-87.602;2023-05-02T02:52:01;97951.53;;;11.42;64.37
49342;BME280;35210;41.606;-87.602;2023-05-02T02:54:34;97946.75;;;11.46;63.96
49342;BME280;35210;41.606;-87.602;2023-05-02T02:57:17;97956.50;;;11.45;64.39
49342;BME280;35210;41.606;-87.602;2023-05-02T02:59:56;97947.41;;;11.40;63.15
49342;BME280;35210;41.606;-87.602;2023-05-02T03:02:29;97947.75;;;11.45;63.83
49342;BME280;35210;41.606;-87.602;2023-05-02T03:05:00;97950.41;;;11.45;63.36
49342;BME280;35210;41.606;-87.602;2023-05-02T03:07:30;97956.97;;;11.41;63.31
49342;BME280;35210;41.606;-87.602;2023-05-02T03:10:02;97958.31;;;11.45;63.66
49342;BME280;35210;41.606;-87.602;2023-05-02T03:12:30;97951.69;;;11.41;63.88
49342;BME280;35210;41.606;-87.602;2023-05-02T03:15:07;97952.03;;;11.46;63.45
49342;BME280;35210;41.606;-87.602;2023-05-02T03:17:41;97953.50;;;11.40;63.80
49342;BME280;35210;41.606;-87.602;2023-05-02T03:20:10;97940.47;;;11.39;65.13
49342;BME280;35210;41.606;-87.602;2023-05-02T03:22:38;97945.44;;;11.42;64.48
49342;BME280;35210;41.606;-87.602;2023-05-02T03:25:07;97945.78;;;11.47;63.96
49342;BME280;35210;41.606;-87.602;2023-05-02T03:27:35;97956.19;;;11.48;62.71
49342;BME280;35210;41.606;-87.602;2023-05-02T03:30:04;97940.97;;;11.42;62.15
49342;BME280;35210;41.606;-87.602;2023-05-02T03:32:32;97930.91;;;11.46;62.24
49342;BME280;35210;41.606;-87.602;2023-05-02T03:35:01;97938.84;;;11.46;63.45
49342;BME280;35210;41.606;-87.602;2023-05-02T03:37:33;97939.00;;;11.44;63.43
49342;BME280;35210;41.606;-87.602;2023-05-02T03:40:01;97935.69;;;11.42;63.16
49342;BME280;35210;41.606;-87.602;2023-05-02T03:42:29;97942.47;;;11.45;63.15
49342;BME280;35210;41.606;-87.602;2023-05-02T03:44:58;97941.47;;;11.46;63.41
49342;BME280;35210;41.606;-87.602;2023-05-02T03:47:26;97937.50;;;11.42;63.85
49342;BME280;35210;41.606;-87.602;2023-05-02T03:49:54;97944.13;;;11.46;63.40
49342;BME280;35210;41.606;-87.602;2023-05-02T03:52:24;97943.97;;;11.47;62.60
49342;BME280;35210;41.606;-87.602;2023-05-02T03:54:53;97944.59;;;11.41;62.71
49342;BME280;35210;41.606;-87.602;2023-05-02T03:57:21;97947.75;;;11.45;62.73
49342;BME280;35210;41.606;-87.602;2023-05-02T03:59:49;97940.97;;;11.42;62.92
49342;BME280;35210;41.606;-87.602;2023-05-02T04:02:17;97942.63;;;11.43;62.43
49342;BME280;35210;41.606;-87.602;2023-05-02T04:04:45;97921.78;;;11.40;62.54
49342;BME280;35210;41.606;-87.602;2023-05-02T04:07:13;97929.88;;;11.39;62.90
49342;BME280;35210;41.606;-87.602;2023-05-02T04:09:44;97931.53;;;11.40;61.69
49342;BME280;35210;41.606;-87.602;2023-05-02T04:12:14;97939.31;;;11.41;62.15
49342;BME280;35210;41.606;-87.602;2023-05-02T04:14:42;97941.28;;;11.39;62.25
49342;BME280;35210;41.606;-87.602;2023-05-02T04:17:10;97942.44;;;11.37;62.99
49342;BME280;35210;41.606;-87.602;2023-05-02T04:19:38;97940.13;;;11.42;62.05
49342;BME280;35210;41.606;-87.602;2023-05-02T04:22:06;97945.06;;;11.37;61.90
49342;BME280;35210;41.606;-87.602;2023-05-02T04:24:34;97936.16;;;11.38;63.02
49342;BME280;35210;41.606;-87.602;2023-05-02T04:27:04;97939.13;;;11.35;61.97
49342;BME280;35210;41.606;-87.602;2023-05-02T04:29:33;97941.41;;;11.30;62.51
49342;BME280;35210;41.606;-87.602;2023-05-02T04:32:01;97942.56;;;11.27;62.28
49342;BME280;35210;41.606;-87.602;2023-05-02T04:34:29;97940.75;;;11.28;62.04
49342;BME280;35210;41.606;-87.602;2023-05-02T04:36:57;97949.97;;;11.24;62.69
49342;BME280;35210;41.606;-87.602;2023-05-02T04:39:25;97939.88;;;11.19;62.99
49342;BME280;35210;41.606;-87.602;2023-05-02T04:41:53;97947.97;;;11.17;63.22
49342;BME280;35210;41.606;-87.602;2023-05-02T04:44:23;97943.03;;;11.23;62.65
49342;BME280;35210;41.606;-87.602;2023-05-02T04:46:51;97938.41;;;11.25;63.17
49342;BME280;35210;41.606;-87.602;2023-05-02T04:49:19;97939.56;;;11.22;62.59
49342;BME280;35210;41.606;-87.602;2023-05-02T04:51:47;97931.47;;;11.24;62.23
49342;BME280;35210;41.606;-87.602;2023-05-02T04:54:17;97936.75;;;11.24;62.40
49342;BME280;35210;41.606;-87.602;2023-05-02T04:56:45;97936.44;;;11.27;62.10
49342;BME280;35210;41.606;-87.602;2023-05-02T04:59:13;97932.47;;;11.23;61.51
49342;BME280;35210;41.606;-87.602;2023-05-02T05:01:43;97935.09;;;11.23;61.08
49342;BME280;35210;41.606;-87.602;2023-05-02T05:04:12;97938.09;;;11.28;60.43
49342;BME280;35210;41.606;-87.602;2023-05-02T05:06:40;97936.59;;;11.25;60.53
49342;BME280;35210;41.606;-87.602;2023-05-02T05:09:08;97940.69;;;11.19;61.40
49342;BME280;35210;41.606;-87.602;2023-05-02T05:11:36;97939.72;;;11.20;61.35
49342;BME280;35210;41.606;-87.602;2023-05-02T05:14:04;97943.00;;;11.14;61.44
49342;BME280;35210;41.606;-87.602;2023-05-02T05:16:32;97945.16;;;11.19;60.49
49342;BME280;35210;41.606;-87.602;2023-05-02T05:19:02;97940.69;;;11.19;61.74
49342;BME280;35210;41.606;-87.602;2023-05-02T05:21:30;97946.81;;;11.20;61.79
49342;BME280;35210;41.606;-87.602;2023-05-02T05:23:58;97945.34;;;11.26;60.78
49342;BME280;35210;41.606;-87.602;2023-05-02T05:26:27;97952.09;;;11.20;60.80
49342;BME280;35210;41.606;-87.602;2023-05-02T05:28:55;97950.59;;;11.17;60.97
49342;BME280;35210;41.606;-87.602;2023-05-02T05:31:23;97954.22;;;11.16;61.24
49342;BME280;35210;41.606;-87.602;2023-05-02T05:33:51;97953.91;;;11.19;61.57
49342;BME280;35210;41.606;-87.602;2023-05-02T05:36:21;97953.75;;;11.21;60.48
49342;BME280;35210;41.606;-87.602;2023-05-02T05:38:50;97953.59;;;11.23;61.18
49342;BME280;35210;41.606;-87.602;2023-05-02T05:41:18;97958.88;;;11.23;61.28
49342;BME280;35210;41.606;-87.602;2023-05-02T05:43:46;97961.84;;;11.19;60.74
49342;BME280;35210;41.606;-87.602;2023-05-02T05:46:14;97965.47;;;11.18;61.26
49342;BME280;35210;41.606;-87.602;2023-05-02T05:48:42;97964.84;;;11.25;61.63
49342;BME280;35210;41.606;-87.602;2023-05-02T05:51:10;97958.22;;;11.20;60.53
49342;BME280;35210;41.606;-87.602;2023-05-02T05:53:39;97955.06;;;11.17;60.91
49342;BME280;35210;41.606;-87.602;2023-05-02T05:56:08;97966.13;;;11.12;61.51
49342;BME280;35210;41.606;-87.602;2023-05-02T05:58:36;97962.66;;;11.12;60.81
49342;BME280;35210;41.606;-87.602;2023-05-02T06:01:04;97977.84;;;11.10;60.57
49342;BME280;35210;41.606;-87.602;2023-05-02T06:03:33;97966.91;;;11.05;60.67
49342;BME280;35210;41.606;-87.602;2023-05-02T06:06:01;97967.06;;;11.03;59.18
49342;BME280;35210;41.606;-87.602;2023-05-02T06:08:29;97980.22;;;10.95;59.33
49342;BME280;35210;41.606;-87.602;2023-05-02T06:10:59;97963.03;;;10.91;58.85
49342;BME280;35210;41.606;-87.602;2023-05-02T06:13:26;97957.19;;;10.79;59.92
49342;BME280;35210;41.606;-87.602;2023-05-02T06:15:59;97961.63;;;10.79;60.62
49342;BME280;35210;41.606;-87.602;2023-05-02T06:18:28;97954.03;;;10.76;60.29
49342;BME280;35210;41.606;-87.602;2023-05-02T06:20:57;97956.97;;;10.73;59.88
49342;BME280;35210;41.606;-87.602;2023-05-02T06:26:48;97963.63;;;10.59;60.83
49342;BME280;35210;41.606;-87.602;2023-05-02T06:29:16;97960.84;;;10.61;60.02
49342;BME280;35210;41.606;-87.602;2023-05-02T06:31:44;97957.22;;;10.62;60.13
49342;BME280;35210;41.606;-87.602;2023-05-02T06:34:12;97959.78;;;10.53;60.90
49342;BME280;35210;41.606;-87.602;2023-05-02T06:36:40;97960.38;;;10.39;60.55
49342;BME280;35210;41.606;-87.602;2023-05-02T06:39:08;97944.69;;;10.38;61.88
49342;BME280;35210;41.606;-87.602;2023-05-02T06:41:36;97947.50;;;10.36;61.02
49342;BME280;35210;41.606;-87.602;2023-05-02T06:44:06;97952.47;;;10.39;61.34
49342;BME280;35210;41.606;-87.602;2023-05-02T06:46:34;97949.06;;;10.29;61.68
49342;BME280;35210;41.606;-87.602;2023-05-02T06:49:02;97956.84;;;10.31;61.87
49342;BME280;35210;41.606;-87.602;2023-05-02T06:51:30;97950.81;;;10.38;62.13
49342;BME280;35210;41.606;-87.602;2023-05-02T06:53:58;97954.72;;;10.34;60.32
49342;BME280;35210;41.606;-87.602;2023-05-02T06:56:26;97953.38;;;10.30;60.61
49342;BME280;35210;41.606;-87.602;2023-05-02T06:58:55;97960.59;;;10.28;61.19
49342;BME280;35210;41.606;-87.602;2023-05-02T07:01:24;97946.22;;;10.23;61.42
49342;BME280;35210;41.606;-87.602;2023-05-02T07:03:53;97948.03;;;10.22;61.86
49342;BME280;35210;41.606;-87.602;2023-05-02T07:06:22;97943.44;;;10.24;61.33
49342;BME280;35210;41.606;-87.602;2023-05-02T07:08:50;97944.25;;;10.25;61.73
49342;BME280;35210;41.606;-87.602;2023-05-02T07:11:18;97944.25;;;10.25;60.96
49342;BME280;35210;41.606;-87.602;2023-05-02T07:13:48;97940.38;;;10.19;61.74
49342;BME280;35210;41.606;-87.602;2023-05-02T07:16:17;97941.00;;;10.13;61.68
49342;BME280;35210;41.606;-87.602;2023-05-02T07:18:46;97940.00;;;10.14;62.10
49342;BME280;35210;41.606;-87.602;2023-05-02T07:21:14;97932.41;;;10.11;62.78
49342;BME280;35210;41.606;-87.602;2023-05-02T07:23:44;97931.78;;;10.17;61.79
49342;BME280;35210;41.606;-87.602;2023-05-02T07:26:12;97930.97;;;10.16;61.93
49342;BME280;35210;41.606;-87.602;2023-05-02T07:28:40;97933.44;;;10.18;62.51
49342;BME280;35210;41.606;-87.602;2023-05-02T07:31:08;97933.69;;;10.25;62.34
49342;BME280;35210;41.606;-87.602;2023-05-02T07:33:36;97931.78;;;10.17;63.14
49342;BME280;35210;41.606;-87.602;2023-05-02T07:36:06;97935.97;;;10.19;62.98
49342;BME280;35210;41.606;-87.602;2023-05-02T07:38:34;97936.66;;;10.22;62.86
49342;BME280;35210;41.606;-87.602;2023-05-02T07:41:02;97940.19;;;10.30;61.04
49342;BME280;35210;41.606;-87.602;2023-05-02T07:43:30;97946.63;;;10.18;62.07
49342;BME280;35210;41.606;-87.602;2023-05-02T07:46:03;97932.78;;;10.16;62.50
49342;BME280;35210;41.606;-87.602;2023-05-02T07:48:31;97938.03;;;10.16;62.72
49342;BME280;35210;41.606;-87.602;2023-05-02T07:51:07;97940.00;;;10.14;61.51
49342;BME280;35210;41.606;-87.602;2023-05-02T07:53:37;97940.63;;;10.08;62.54
49342;BME280;35210;41.606;-87.602;2023-05-02T07:56:06;97951.00;;;10.09;62.89
49342;BME280;35210;41.606;-87.602;2023-05-02T07:58:34;97941.28;;;10.10;63.43
49342;BME280;35210;41.606;-87.602;2023-05-02T08:01:03;97941.38;;;10.18;62.90
49342;BME280;35210;41.606;-87.602;2023-05-02T08:03:31;97945.44;;;10.12;62.94
49342;BME280;35210;41.606;-87.602;2023-05-02T08:05:59;97948.75;;;10.14;62.55
49342;BME280;35210;41.606;-87.602;2023-05-02T08:08:30;97948.59;;;10.16;62.95
49342;BME280;35210;41.606;-87.602;2023-05-02T08:10:58;97961.78;;;10.16;63.08
49342;BME280;35210;41.606;-87.602;2023-05-02T08:13:26;97952.63;;;10.20;61.98
49342;BME280;35210;41.606;-87.602;2023-05-02T08:15:54;97963.44;;;10.17;62.25
49342;BME280;35210;41.606;-87.602;2023-05-02T08:18:23;97966.53;;;10.12;62.10
49342;BME280;35210;41.606;-87.602;2023-05-02T08:20:51;97969.09;;;10.04;62.93
49342;BME280;35210;41.606;-87.602;2023-05-02T08:23:19;97969.91;;;10.05;62.94
49342;BME280;35210;41.606;-87.602;2023-05-02T08:25:49;97966.59;;;10.03;62.69
49342;BME280;35210;41.606;-87.602;2023-05-02T08:28:17;97966.59;;;10.03;61.63
49342;BME280;35210;41.606;-87.602;2023-05-02T08:30:45;97971.34;;;9.99;62.30
49342;BME280;35210;41.606;-87.602;2023-05-02T08:33:14;97969.06;;;9.86;62.75
49342;BME280;35210;41.606;-87.602;2023-05-02T08:35:42;97986.09;;;9.92;62.41
49342;BME280;35210;41.606;-87.602;2023-05-02T08:38:10;97988.75;;;9.92;62.77
49342;BME280;35210;41.606;-87.602;2023-05-02T08:40:38;97988.00;;;10.00;62.49
49342;BME280;35210;41.606;-87.602;2023-05-02T08:43:10;97993.56;;;9.97;62.31
49342;BME280;35210;41.606;-87.602;2023-05-02T08:45:40;97990.84;;;9.88;61.91
49342;BME280;35210;41.606;-87.602;2023-05-02T08:48:11;97985.88;;;9.85;60.95
49342;BME280;35210;41.606;-87.602;2023-05-02T08:50:42;97999.19;;;9.84;61.12
49342;BME280;35210;41.606;-87.602;2023-05-02T08:53:13;97998.97;;;9.77;62.15
49342;BME280;35210;41.606;-87.602;2023-05-02T08:55:41;98005.44;;;9.65;61.39
49342;BME280;35210;41.606;-87.602;2023-05-02T08:58:11;97997.16;;;9.60;62.20
49342;BME280;35210;41.606;-87.602;2023-05-02T09:00:40;98009.72;;;9.66;62.08
49342;BME280;35210;41.606;-87.602;2023-05-02T09:03:21;98012.34;;;9.66;62.20
49342;BME280;35210;41.606;-87.602;2023-05-02T09:05:59;98013.78;;;9.61;62.02
49342;BME280;35210;41.606;-87.602;2023-05-02T09:08:30;98016.56;;;9.59;62.61
49342;BME280;35210;41.606;-87.602;2023-05-02T09:10:58;98010.03;;;9.63;62.51
49342;BME280;35210;41.606;-87.602;2023-05-02T09:13:35;98008.81;;;9.58;63.41
49342;BME280;35210;41.606;-87.602;2023-05-02T09:16:05;98014.38;;;9.54;63.38
49342;BME280;35210;41.606;-87.602;2023-05-02T09:18:34;98019.59;;;9.64;62.46
49342;BME280;35210;41.606;-87.602;2023-05-02T09:21:05;98018.22;;;9.60;62.53
49342;BME280;35210;41.606;-87.602;2023-05-02T09:23:38;98020.44;;;9.65;62.88
49342;BME280;35210;41.606;-87.602;2023-05-02T09:26:16;98030.78;;;9.66;63.42
49342;BME280;35210;41.606;-87.602;2023-05-02T09:28:47;98022.66;;;9.60;63.37
49342;BME280;35210;41.606;-87.602;2023-05-02T09:31:16;98019.88;;;9.61;62.76
49342;BME280;35210;41.606;-87.602;2023-05-02T09:33:45;98019.25;;;9.49;62.37
49342;BME280;35210;41.606;-87.602;2023-05-02T09:36:15;98022.31;;;9.45;62.69
49342;BME280;35210;41.606;-87.602;2023-05-02T09:38:45;98023.41;;;9.52;62.18
49342;BME280;35210;41.606;-87.602;2023-05-02T09:41:14;98031.75;;;9.47;62.94
49342;BME280;35210;41.606;-87.602;2023-05-02T09:43:43;98038.66;;;9.48;62.91
49342;BME280;35210;41.606;-87.602;2023-05-02T09:46:13;98043.41;;;9.45;61.24
49342;BME280;35210;41.606;-87.602;2023-05-02T09:48:52;98044.91;;;9.47;61.52
49342;BME280;35210;41.606;-87.602;2023-05-02T09:51:21;98044.66;;;9.41;61.65
49342;BME280;35210;41.606;-87.602;2023-05-02T09:53:50;98044.91;;;9.47;61.24
49342;BME280;35210;41.606;-87.602;2023-05-02T09:56:18;98049.94;;;9.41;61.27
49342;BME280;35210;41.606;-87.602;2023-05-02T09:58:46;98047.19;;;9.33;61.88
49342;BME280;35210;41.606;-87.602;2023-05-02T10:01:16;98063.69;;;9.35;61.69
49342;BME280;35210;41.606;-87.602;2023-05-02T10:03:46;98049.13;;;9.31;62.04
49342;BME280;35210;41.606;-87.602;2023-05-02T10:06:14;98060.13;;;9.16;61.90
49342;BME280;35210;41.606;-87.602;2023-05-02T10:08:43;98063.03;;;9.13;62.35
49342;BME280;35210;41.606;-87.602;2023-05-02T10:11:12;98066.66;;;9.12;63.01
49342;BME280;35210;41.606;-87.602;2023-05-02T10:13:42;98074.13;;;9.17;63.05
49342;BME280;35210;41.606;-87.602;2023-05-02T10:16:12;98074.94;;;9.17;62.38
49342;BME280;35210;41.606;-87.602;2023-05-02T10:18:55;98069.97;;;9.14;63.06
49342;BME280;35210;41.606;-87.602;2023-05-02T10:21:25;98085.22;;;9.11;62.74
49342;BME280;35210;41.606;-87.602;2023-05-02T10:23:54;98075.94;;;9.07;62.45
49342;BME280;35210;41.606;-87.602;2023-05-02T10:26:22;98084.53;;;9.09;62.83
49342;BME280;35210;41.606;-87.602;2023-05-02T10:28:51;98080.78;;;9.11;63.09
49342;BME280;35210;41.606;-87.602;2023-05-02T10:31:21;98083.28;;;9.03;62.57
49342;BME280;35210;41.606;-87.602;2023-05-02T10:33:52;98079.00;;;9.02;63.44
49342;BME280;35210;41.606;-87.602;2023-05-02T10:36:23;98085.63;;;9.06;62.97
49342;BME280;35210;41.606;-87.602;2023-05-02T10:38:52;98090.09;;;8.96;63.42
49342;BME280;35210;41.606;-87.602;2023-05-02T10:41:22;98094.09;;;9.00;63.09
49342;BME280;35210;41.606;-87.602;2023-05-02T10:43:52;98094.38;;;8.97;63.34
49342;BME280;35210;41.606;-87.602;2023-05-02T10:46:31;98097.16;;;8.96;63.89
49342;BME280;35210;41.606;-87.602;2023-05-02T10:49:04;98091.75;;;8.97;63.64
49342;BME280;35210;41.606;-87.602;2023-05-02T10:51:33;98093.56;;;8.97;63.74
49342;BME280;35210;41.606;-87.602;2023-05-02T10:54:21;98098.94;;;9.05;63.78
49342;BME280;35210;41.606;-87.602;2023-05-02T10:57:06;98105.06;;;8.96;63.67
49342;BME280;35210;41.606;-87.602;2023-05-02T10:59:35;98104.91;;;8.97;64.36
49342;BME280;35210;41.606;-87.602;2023-05-02T11:02:04;98104.91;;;8.97;64.20
49342;BME280;35210;41.606;-87.602;2023-05-02T11:07:32;98107.13;;;9.11;63.64
49342;BME280;35210;41.606;-87.602;2023-05-02T11:10:33;98113.50;;;9.09;63.59
49342;BME280;35210;41.606;-87.602;2023-05-02T11:13:01;98105.03;;;9.05;63.34
49342;BME280;35210;41.606;-87.602;2023-05-02T11:15:54;98110.16;;;9.07;63.46
49342;BME280;35210;41.606;-87.602;2023-05-02T11:18:23;98110.03;;;9.08;63.87
49342;BME280;35210;41.606;-87.602;2023-05-02T11:20:51;98117.94;;;9.08;64.17
49342;BME280;35210;41.606;-87.602;2023-05-02T11:23:32;98114.31;;;9.09;63.89
49342;BME280;35210;41.606;-87.602;2023-05-02T11:26:20;98124.84;;;9.09;63.98
49342;BME280;35210;41.606;-87.602;2023-05-02T11:28:48;98129.16;;;9.10;64.65
49342;BME280;35210;41.606;-87.602;2023-05-02T11:34:43;98135.09;;;9.12;64.75
49342;BME280;35210;41.606;-87.602;2023-05-02T11:37:12;98138.44;;;9.14;64.93
49342;BME280;35210;41.606;-87.602;2023-05-02T11:39:42;98133.56;;;9.19;65.09
49342;BME280;35210;41.606;-87.602;2023-05-02T11:42:29;98126.78;;;9.17;64.66
49342;BME280;35210;41.606;-87.602;2023-05-02T11:44:59;98147.28;;;9.23;64.85
49342;BME280;35210;41.606;-87.602;2023-05-02T11:47:27;98143.00;;;9.32;64.15
49342;BME280;35210;41.606;-87.602;2023-05-02T11:49:56;98147.84;;;9.27;64.37
49342;BME280;35210;41.606;-87.602;2023-05-02T11:52:26;98143.97;;;9.31;64.03
49342;BME280;35210;41.606;-87.602;2023-05-02T11:54:56;98153.13;;;9.27;64.31
49342;BME280;35210;41.606;-87.602;2023-05-02T11:57:24;98153.94;;;9.27;64.40
49342;BME280;35210;41.606;-87.602;2023-05-02T11:59:53;98151.72;;;9.32;64.33
49342;BME280;35210;41.606;-87.602;2023-05-02T12:02:35;98160.31;;;9.34;63.85
49342;BME280;35210;41.606;-87.602;2023-05-02T12:05:04;98152.56;;;9.33;64.62
49342;BME280;35210;41.606;-87.602;2023-05-02T12:07:37;98154.34;;;9.32;64.74
49342;BME280;35210;41.606;-87.602;2023-05-02T12:10:08;98154.22;;;9.34;65.14
49342;BME280;35210;41.606;-87.602;2023-05-02T12:12:36;98148.66;;;9.37;65.09
49342;BME280;35210;41.606;-87.602;2023-05-02T12:15:06;98150.88;;;9.41;64.90
49342;BME280;35210;41.606;-87.602;2023-05-02T12:17:38;98157.53;;;9.45;64.00
49342;BME280;35210;41.606;-87.602;2023-05-02T12:20:08;98153.91;;;9.56;63.29
49342;BME280;35210;41.606;-87.602;2023-05-02T12:22:37;98154.59;;;9.58;62.96
49342;BME280;35210;41.606;-87.602;2023-05-02T12:25:08;98152.50;;;9.52;63.13
49342;BME280;35210;41.606;-87.602;2023-05-02T12:27:36;98155.97;;;9.52;63.18
49342;BME280;35210;41.606;-87.602;2023-05-02T12:30:05;98158.06;;;9.49;63.29
49342;BME280;35210;41.606;-87.602;2023-05-02T12:32:34;98156.97;;;9.42;63.00
49342;BME280;35210;41.606;-87.602;2023-05-02T12:35:03;98152.00;;;9.39;63.93
49342;BME280;35210;41.606;-87.602;2023-05-02T12:37:32;98162.25;;;9.42;64.24
49342;BME280;35210;41.606;-87.602;2023-05-02T12:40:00;98162.53;;;9.39;64.32
49342;BME280;35210;41.606;-87.602;2023-05-02T12:42:30;98159.88;;;9.48;63.90
49342;BME280;35210;41.606;-87.602;2023-05-02T12:44:59;98161.28;;;9.43;63.40
49342;BME280;35210;41.606;-87.602;2023-05-02T12:47:27;98165.56;;;9.44;63.98
49342;BME280;35210;41.606;-87.602;2023-05-02T12:49:57;98165.56;;;9.44;64.11
49342;BME280;35210;41.606;-87.602;2023-05-02T12:52:46;98164.47;;;9.46;64.49
49342;BME280;35210;41.606;-87.602;2023-05-02T12:55:15;98160.72;;;9.49;63.76
49342;BME280;35210;41.606;-87.602;2023-05-02T12:57:45;98166.38;;;9.54;64.07
49342;BME280;35210;41.606;-87.602;2023-05-02T13:00:15;98161.91;;;9.64;63.34
49342;BME280;35210;41.606;-87.602;2023-05-02T13:02:44;98154.16;;;9.63;63.71
49342;BME280;35210;41.606;-87.602;2023-05-02T13:05:15;98156.31;;;9.67;63.98
49342;BME280;35210;41.606;-87.602;2023-05-02T13:07:44;98156.88;;;9.71;63.82
49342;BME280;35210;41.606;-87.602;2023-05-02T13:10:13;98157.41;;;9.74;62.88